Terminal Aerodrome Forecast
Issued by NWS North Platte, NE

Home | Current Version | Previous Version | Text Only | Print | Product List | Glossary On
Versions: 1 2 3 4 5 6 7 8 9 10 11 12 13 14 15 16 17 18 19
336
FTUS43 KLBF 161126
TAFLBF
TAF
KLBF 161126Z 1612/1712 VRB05KT 1 1/2SM -FZDZ BR OVC003
     FM161400 36010KT 1 1/2SM -FZDZSN OVC004
     FM161800 36013G19KT 2SM -SN OVC005
     FM162100 35013G19KT 3SM -SN OVC008
     FM162300 35010KT P6SM SCT008 BKN050 OVC100
     FM170600 33008KT P6SM BKN250=

USA.gov is the U.S. government's official web portal to all federal, state and local government web resources and services.